sensor_id;sensor_type;location;lat;lon;timestamp;P1;durP1;ratioP1;P2;durP2;ratioP2
71610;SDS011;59459;51.172;6.682;2022-12-10T02:42:09;35.60;;;16.20;;
71610;SDS011;59459;51.172;6.682;2022-12-10T02:44:56;43.17;;;17.58;;
71610;SDS011;59459;51.172;6.682;2022-12-10T02:47:22;37.90;;;16.60;;
71610;SDS011;59459;51.172;6.682;2022-12-10T02:49:47;41.33;;;17.35;;
71610;SDS011;59459;51.172;6.682;2022-12-10T02:52:15;39.47;;;16.50;;
71610;SDS011;59459;51.172;6.682;2022-12-10T02:54:46;40.97;;;17.02;;
71610;SDS011;59459;51.172;6.682;2022-12-10T02:57:18;36.97;;;16.90;;
71610;SDS011;59459;51.172;6.682;2022-12-10T03:02:12;37.77;;;16.93;;
71610;SDS011;59459;51.172;6.682;2022-12-10T03:07:10;40.93;;;17.07;;
71610;SDS011;59459;51.172;6.682;2022-12-10T03:09:39;37.13;;;16.30;;
71610;SDS011;59459;51.172;6.682;2022-12-10T03:12:11;35.88;;;16.00;;
71610;SDS011;59459;51.172;6.682;2022-12-10T03:14:38;36.55;;;16.77;;
71610;SDS011;59459;51.172;6.682;2022-12-10T03:17:03;42.30;;;17.13;;
71610;SDS011;59459;51.172;6.682;2022-12-10T03:22:23;36.05;;;16.33;;
71610;SDS011;59459;51.172;6.682;2022-12-10T03:24:48;41.70;;;16.87;;
71610;SDS011;59459;51.172;6.682;2022-12-10T03:27:14;44.40;;;18.10;;
71610;SDS011;59459;51.172;6.682;2022-12-10T03:32:08;44.23;;;17.80;;
71610;SDS011;59459;51.172;6.682;2022-12-10T03:34:34;39.60;;;16.55;;
71610;SDS011;59459;51.172;6.682;2022-12-10T03:37:00;48.47;;;17.30;;
71610;SDS011;59459;51.172;6.682;2022-12-10T03:39:25;42.05;;;17.85;;
71610;SDS011;59459;51.172;6.682;2022-12-10T03:41:51;41.83;;;17.40;;
71610;SDS011;59459;51.172;6.682;2022-12-10T03:44:32;42.17;;;18.40;;
71610;SDS011;59459;51.172;6.682;2022-12-10T03:46:58;44.08;;;18.05;;
71610;SDS011;59459;51.172;6.682;2022-12-10T03:49:23;41.17;;;18.40;;
71610;SDS011;59459;51.172;6.682;2022-12-10T03:51:48;42.90;;;17.73;;
71610;SDS011;59459;51.172;6.682;2022-12-10T03:54:13;47.90;;;19.60;;
71610;SDS011;59459;51.172;6.682;2022-12-10T03:56:39;48.30;;;18.53;;
71610;SDS011;59459;51.172;6.682;2022-12-10T03:59:04;41.70;;;17.97;;
71610;SDS011;59459;51.172;6.682;2022-12-10T04:01:29;46.63;;;18.87;;
71610;SDS011;59459;51.172;6.682;2022-12-10T04:03:54;49.23;;;19.13;;
71610;SDS011;59459;51.172;6.682;2022-12-10T04:06:20;42.87;;;18.27;;
71610;SDS011;59459;51.172;6.682;2022-12-10T04:08:45;45.90;;;19.20;;
71610;SDS011;59459;51.172;6.682;2022-12-10T04:11:11;49.83;;;18.67;;
71610;SDS011;59459;51.172;6.682;2022-12-10T04:13:37;39.67;;;17.00;;
71610;SDS011;59459;51.172;6.682;2022-12-10T04:16:21;45.00;;;18.10;;
71610;SDS011;59459;51.172;6.682;2022-12-10T04:18:57;43.67;;;17.65;;
71610;SDS011;59459;51.172;6.682;2022-12-10T04:21:23;41.27;;;16.97;;
71610;SDS011;59459;51.172;6.682;2022-12-10T04:24:07;43.83;;;16.98;;
71610;SDS011;59459;51.172;6.682;2022-12-10T04:26:52;47.83;;;18.08;;
71610;SDS011;59459;51.172;6.682;2022-12-10T04:29:24;46.23;;;18.43;;
71610;SDS011;59459;51.172;6.682;2022-12-10T04:31:49;50.42;;;18.90;;
71610;SDS011;59459;51.172;6.682;2022-12-10T04:34:15;49.43;;;17.83;;
71610;SDS011;59459;51.172;6.682;2022-12-10T04:36:40;50.77;;;19.33;;
71610;SDS011;59459;51.172;6.682;2022-12-10T04:39:05;52.70;;;18.33;;
71610;SDS011;59459;51.172;6.682;2022-12-10T04:41:30;45.53;;;18.33;;
71610;SDS011;59459;51.172;6.682;2022-12-10T04:43:56;50.73;;;19.03;;
71610;SDS011;59459;51.172;6.682;2022-12-10T04:46:22;52.40;;;20.60;;
71610;SDS011;59459;51.172;6.682;2022-12-10T04:48:47;50.63;;;18.52;;
71610;SDS011;59459;51.172;6.682;2022-12-10T04:51:12;53.63;;;19.70;;
71610;SDS011;59459;51.172;6.682;2022-12-10T04:53:37;52.93;;;20.47;;
71610;SDS011;59459;51.172;6.682;2022-12-10T04:56:03;53.67;;;21.13;;
71610;SDS011;59459;51.172;6.682;2022-12-10T04:58:30;51.92;;;21.02;;
71610;SDS011;59459;51.172;6.682;2022-12-10T05:01:02;52.87;;;19.03;;
71610;SDS011;59459;51.172;6.682;2022-12-10T05:03:27;56.00;;;19.48;;
71610;SDS011;59459;51.172;6.682;2022-12-10T05:05:52;54.20;;;17.97;;
71610;SDS011;59459;51.172;6.682;2022-12-10T05:08:18;55.10;;;20.10;;
71610;SDS011;59459;51.172;6.682;2022-12-10T05:10:43;51.47;;;19.60;;
71610;SDS011;59459;51.172;6.682;2022-12-10T05:13:08;53.33;;;20.03;;
71610;SDS011;59459;51.172;6.682;2022-12-10T05:15:37;55.27;;;19.33;;
71610;SDS011;59459;51.172;6.682;2022-12-10T05:18:02;55.13;;;19.95;;
71610;SDS011;59459;51.172;6.682;2022-12-10T05:20:27;54.33;;;19.97;;
71610;SDS011;59459;51.172;6.682;2022-12-10T05:22:52;51.93;;;18.57;;
71610;SDS011;59459;51.172;6.682;2022-12-10T05:25:36;48.75;;;19.40;;
71610;SDS011;59459;51.172;6.682;2022-12-10T05:28:17;51.08;;;18.90;;
71610;SDS011;59459;51.172;6.682;2022-12-10T05:30:43;53.57;;;19.20;;
71610;SDS011;59459;51.172;6.682;2022-12-10T05:33:08;52.80;;;19.60;;
71610;SDS011;59459;51.172;6.682;2022-12-10T05:35:36;49.93;;;19.30;;
71610;SDS011;59459;51.172;6.682;2022-12-10T05:38:01;57.38;;;18.98;;
71610;SDS011;59459;51.172;6.682;2022-12-10T05:40:26;50.20;;;18.47;;
71610;SDS011;59459;51.172;6.682;2022-12-10T05:42:52;53.87;;;19.97;;
71610;SDS011;59459;51.172;6.682;2022-12-10T05:45:17;57.60;;;19.23;;
71610;SDS011;59459;51.172;6.682;2022-12-10T05:47:42;53.10;;;19.97;;
71610;SDS011;59459;51.172;6.682;2022-12-10T05:50:07;56.07;;;20.40;;
71610;SDS011;59459;51.172;6.682;2022-12-10T05:52:33;53.20;;;20.00;;
71610;SDS011;59459;51.172;6.682;2022-12-10T05:54:58;46.47;;;16.97;;
71610;SDS011;59459;51.172;6.682;2022-12-10T05:57:23;48.77;;;18.47;;
71610;SDS011;59459;51.172;6.682;2022-12-10T05:59:48;57.77;;;20.67;;
71610;SDS011;59459;51.172;6.682;2022-12-10T06:02:14;59.90;;;20.57;;
71610;SDS011;59459;51.172;6.682;2022-12-10T06:04:39;57.97;;;20.40;;
71610;SDS011;59459;51.172;6.682;2022-12-10T06:07:04;55.13;;;19.73;;
71610;SDS011;59459;51.172;6.682;2022-12-10T06:09:29;52.40;;;19.30;;
71610;SDS011;59459;51.172;6.682;2022-12-10T06:11:57;61.03;;;21.80;;
71610;SDS011;59459;51.172;6.682;2022-12-10T06:14:22;57.60;;;20.40;;
71610;SDS011;59459;51.172;6.682;2022-12-10T06:16:47;52.97;;;20.63;;
71610;SDS011;59459;51.172;6.682;2022-12-10T06:19:12;61.83;;;21.33;;
71610;SDS011;59459;51.172;6.682;2022-12-10T06:21:38;61.80;;;22.37;;
71610;SDS011;59459;51.172;6.682;2022-12-10T06:24:03;69.73;;;23.23;;
71610;SDS011;59459;51.172;6.682;2022-12-10T06:26:28;61.47;;;21.60;;
71610;SDS011;59459;51.172;6.682;2022-12-10T06:28:53;61.83;;;20.30;;
71610;SDS011;59459;51.172;6.682;2022-12-10T06:31:19;61.33;;;19.85;;
71610;SDS011;59459;51.172;6.682;2022-12-10T06:33:45;65.73;;;20.90;;
71610;SDS011;59459;51.172;6.682;2022-12-10T06:36:11;66.60;;;20.77;;
71610;SDS011;59459;51.172;6.682;2022-12-10T06:38:36;59.60;;;19.70;;
71610;SDS011;59459;51.172;6.682;2022-12-10T06:41:06;58.50;;;19.35;;
71610;SDS011;59459;51.172;6.682;2022-12-10T06:43:31;56.83;;;20.13;;
71610;SDS011;59459;51.172;6.682;2022-12-10T06:45:57;60.00;;;18.48;;
71610;SDS011;59459;51.172;6.682;2022-12-10T06:48:22;57.83;;;19.90;;
71610;SDS011;59459;51.172;6.682;2022-12-10T06:50:47;57.60;;;19.73;;
71610;SDS011;59459;51.172;6.682;2022-12-10T06:53:12;56.80;;;19.30;;
71610;SDS011;59459;51.172;6.682;2022-12-10T06:55:38;53.57;;;18.77;;
71610;SDS011;59459;51.172;6.682;2022-12-10T06:58:03;59.03;;;19.37;;
71610;SDS011;59459;51.172;6.682;2022-12-10T07:00:29;59.57;;;20.27;;
71610;SDS011;59459;51.172;6.682;2022-12-10T07:02:54;52.67;;;19.83;;
71610;SDS011;59459;51.172;6.682;2022-12-10T07:05:19;58.25;;;19.92;;
71610;SDS011;59459;51.172;6.682;2022-12-10T07:07:45;55.03;;;20.00;;
71610;SDS011;59459;51.172;6.682;2022-12-10T07:10:10;63.03;;;21.67;;
71610;SDS011;59459;51.172;6.682;2022-12-10T07:12:35;71.37;;;22.00;;
71610;SDS011;59459;51.172;6.682;2022-12-10T07:15:00;72.43;;;24.60;;
71610;SDS011;59459;51.172;6.682;2022-12-10T07:17:26;67.60;;;22.57;;
71610;SDS011;59459;51.172;6.682;2022-12-10T07:19:51;74.23;;;24.07;;
71610;SDS011;59459;51.172;6.682;2022-12-10T07:22:16;73.97;;;22.53;;
71610;SDS011;59459;51.172;6.682;2022-12-10T07:24:42;56.70;;;20.55;;
71610;SDS011;59459;51.172;6.682;2022-12-10T07:27:07;66.93;;;20.83;;
71610;SDS011;59459;51.172;6.682;2022-12-10T07:29:33;57.07;;;20.93;;
71610;SDS011;59459;51.172;6.682;2022-12-10T07:32:01;58.60;;;18.75;;
71610;SDS011;59459;51.172;6.682;2022-12-10T07:34:26;72.20;;;22.00;;
71610;SDS011;59459;51.172;6.682;2022-12-10T07:36:51;64.28;;;19.30;;
71610;SDS011;59459;51.172;6.682;2022-12-10T07:39:16;58.23;;;18.23;;
71610;SDS011;59459;51.172;6.682;2022-12-10T07:41:46;54.20;;;20.30;;
71610;SDS011;59459;51.172;6.682;2022-12-10T07:44:12;57.47;;;19.60;;
71610;SDS011;59459;51.172;6.682;2022-12-10T07:46:37;59.27;;;18.40;;
71610;SDS011;59459;51.172;6.682;2022-12-10T07:49:02;60.10;;;18.13;;
71610;SDS011;59459;51.172;6.682;2022-12-10T07:51:28;60.87;;;17.83;;
71610;SDS011;59459;51.172;6.682;2022-12-10T07:53:54;56.83;;;18.58;;
71610;SDS011;59459;51.172;6.682;2022-12-10T07:56:20;63.33;;;20.13;;
71610;SDS011;59459;51.172;6.682;2022-12-10T07:58:47;64.15;;;19.17;;
71610;SDS011;59459;51.172;6.682;2022-12-10T08:01:14;68.00;;;20.13;;
71610;SDS011;59459;51.172;6.682;2022-12-10T08:03:39;66.65;;;20.85;;
71610;SDS011;59459;51.172;6.682;2022-12-10T08:06:09;64.53;;;19.93;;
71610;SDS011;59459;51.172;6.682;2022-12-10T08:08:35;63.22;;;20.48;;
71610;SDS011;59459;51.172;6.682;2022-12-10T08:11:01;69.68;;;20.00;;
71610;SDS011;59459;51.172;6.682;2022-12-10T08:13:27;63.07;;;20.03;;
71610;SDS011;59459;51.172;6.682;2022-12-10T08:15:52;78.07;;;22.00;;
71610;SDS011;59459;51.172;6.682;2022-12-10T08:18:17;65.83;;;18.33;;
71610;SDS011;59459;51.172;6.682;2022-12-10T08:20:43;63.17;;;18.10;;
71610;SDS011;59459;51.172;6.682;2022-12-10T08:23:08;60.53;;;17.67;;
71610;SDS011;59459;51.172;6.682;2022-12-10T08:25:33;65.23;;;20.07;;
71610;SDS011;59459;51.172;6.682;2022-12-10T08:28:00;66.53;;;20.13;;
71610;SDS011;59459;51.172;6.682;2022-12-10T08:30:27;63.20;;;21.00;;
71610;SDS011;59459;51.172;6.682;2022-12-10T08:32:56;75.23;;;22.33;;
71610;SDS011;59459;51.172;6.682;2022-12-10T08:35:24;70.30;;;21.37;;
71610;SDS011;59459;51.172;6.682;2022-12-10T08:37:52;73.88;;;21.35;;
71610;SDS011;59459;51.172;6.682;2022-12-10T08:40:17;75.27;;;21.03;;
71610;SDS011;59459;51.172;6.682;2022-12-10T08:42:42;74.43;;;22.20;;
71610;SDS011;59459;51.172;6.682;2022-12-10T08:45:08;68.70;;;22.17;;
71610;SDS011;59459;51.172;6.682;2022-12-10T08:47:33;68.03;;;21.67;;
71610;SDS011;59459;51.172;6.682;2022-12-10T08:49:58;56.53;;;18.37;;
71610;SDS011;59459;51.172;6.682;2022-12-10T08:52:24;73.63;;;20.20;;
71610;SDS011;59459;51.172;6.682;2022-12-10T08:54:49;62.27;;;20.57;;
71610;SDS011;59459;51.172;6.682;2022-12-10T08:57:14;70.00;;;20.73;;
71610;SDS011;59459;51.172;6.682;2022-12-10T08:59:40;72.60;;;19.40;;
71610;SDS011;59459;51.172;6.682;2022-12-10T09:02:11;64.10;;;20.35;;
71610;SDS011;59459;51.172;6.682;2022-12-10T09:04:36;69.57;;;19.35;;
71610;SDS011;59459;51.172;6.682;2022-12-10T09:07:11;70.43;;;21.15;;
71610;SDS011;59459;51.172;6.682;2022-12-10T09:09:36;57.43;;;18.93;;
71610;SDS011;59459;51.172;6.682;2022-12-10T09:12:01;60.23;;;19.37;;
71610;SDS011;59459;51.172;6.682;2022-12-10T09:14:27;67.90;;;20.63;;
71610;SDS011;59459;51.172;6.682;2022-12-10T09:16:52;63.43;;;19.40;;
71610;SDS011;59459;51.172;6.682;2022-12-10T09:19:17;61.07;;;20.60;;
71610;SDS011;59459;51.172;6.682;2022-12-10T09:21:42;66.30;;;24.67;;
71610;SDS011;59459;51.172;6.682;2022-12-10T09:24:08;61.47;;;22.80;;
71610;SDS011;59459;51.172;6.682;2022-12-10T09:26:34;59.97;;;18.35;;
71610;SDS011;59459;51.172;6.682;2022-12-10T09:28:59;53.10;;;17.47;;
71610;SDS011;59459;51.172;6.682;2022-12-10T09:31:24;56.53;;;19.67;;
71610;SDS011;59459;51.172;6.682;2022-12-10T09:33:51;56.53;;;17.02;;
71610;SDS011;59459;51.172;6.682;2022-12-10T09:36:17;56.40;;;18.67;;
71610;SDS011;59459;51.172;6.682;2022-12-10T09:38:43;56.05;;;18.60;;
71610;SDS011;59459;51.172;6.682;2022-12-10T09:48:59;58.97;;;19.65;;
71610;SDS011;59459;51.172;6.682;2022-12-10T09:51:28;56.17;;;17.98;;
71610;SDS011;59459;51.172;6.682;2022-12-10T09:53:54;58.83;;;19.33;;
71610;SDS011;59459;51.172;6.682;2022-12-10T09:56:26;58.07;;;18.37;;
71610;SDS011;59459;51.172;6.682;2022-12-10T09:58:52;54.38;;;17.63;;
71610;SDS011;59459;51.172;6.682;2022-12-10T10:01:18;53.07;;;17.57;;
71610;SDS011;59459;51.172;6.682;2022-12-10T10:03:44;55.67;;;19.70;;
71610;SDS011;59459;51.172;6.682;2022-12-10T10:06:13;47.77;;;16.70;;
71610;SDS011;59459;51.172;6.682;2022-12-10T10:08:40;52.55;;;19.45;;
71610;SDS011;59459;51.172;6.682;2022-12-10T10:11:09;58.92;;;20.58;;
71610;SDS011;59459;51.172;6.682;2022-12-10T10:13:44;68.85;;;26.20;;
71610;SDS011;59459;51.172;6.682;2022-12-10T10:18:38;52.20;;;18.38;;
71610;SDS011;59459;51.172;6.682;2022-12-10T10:21:07;55.05;;;19.05;;
71610;SDS011;59459;51.172;6.682;2022-12-10T10:23:36;50.03;;;18.85;;
71610;SDS011;59459;51.172;6.682;2022-12-10T10:26:02;48.57;;;17.63;;
71610;SDS011;59459;51.172;6.682;2022-12-10T10:28:27;48.07;;;17.73;;
71610;SDS011;59459;51.172;6.682;2022-12-10T10:30:53;53.25;;;18.02;;
71610;SDS011;59459;51.172;6.682;2022-12-10T10:33:19;55.97;;;18.80;;
71610;SDS011;59459;51.172;6.682;2022-12-10T10:38:28;53.23;;;17.83;;
71610;SDS011;59459;51.172;6.682;2022-12-10T10:40:57;47.70;;;19.73;;
71610;SDS011;59459;51.172;6.682;2022-12-10T10:43:25;53.78;;;19.75;;
71610;SDS011;59459;51.172;6.682;2022-12-10T10:45:54;51.45;;;19.52;;
71610;SDS011;59459;51.172;6.682;2022-12-10T10:48:23;56.13;;;18.95;;
71610;SDS011;59459;51.172;6.682;2022-12-10T10:50:50;50.55;;;18.17;;
71610;SDS011;59459;51.172;6.682;2022-12-10T10:53:57;40.80;;;16.17;;
71610;SDS011;59459;51.172;6.682;2022-12-10T10:58:33;42.08;;;16.25;;
71610;SDS011;59459;51.172;6.682;2022-12-10T11:01:00;38.90;;;14.80;;
71610;SDS011;59459;51.172;6.682;2022-12-10T11:03:26;38.45;;;15.00;;
71610;SDS011;59459;51.172;6.682;2022-12-10T11:05:53;39.08;;;13.95;;
71610;SDS011;59459;51.172;6.682;2022-12-10T11:08:19;48.83;;;16.58;;
71610;SDS011;59459;51.172;6.682;2022-12-10T11:10:49;40.07;;;14.87;;
71610;SDS011;59459;51.172;6.682;2022-12-10T11:13:19;44.42;;;14.93;;
71610;SDS011;59459;51.172;6.682;2022-12-10T11:15:45;39.75;;;17.30;;
71610;SDS011;59459;51.172;6.682;2022-12-10T11:21:01;44.83;;;15.40;;
71610;SDS011;59459;51.172;6.682;2022-12-10T11:23:31;40.42;;;14.55;;
71610;SDS011;59459;51.172;6.682;2022-12-10T11:26:06;44.58;;;16.77;;
71610;SDS011;59459;51.172;6.682;2022-12-10T11:33:39;38.70;;;15.23;;
71610;SDS011;59459;51.172;6.682;2022-12-10T11:43:42;38.58;;;15.18;;
71610;SDS011;59459;51.172;6.682;2022-12-10T11:46:18;38.50;;;15.13;;
71610;SDS011;59459;51.172;6.682;2022-12-10T11:51:16;37.93;;;15.20;;
71610;SDS011;59459;51.172;6.682;2022-12-10T12:17:00;35.08;;;13.90;;
71610;SDS011;59459;51.172;6.682;2022-12-10T12:19:37;35.55;;;13.95;;
71610;SDS011;59459;51.172;6.682;2022-12-10T12:22:08;38.28;;;15.05;;
71610;SDS011;59459;51.172;6.682;2022-12-10T12:24:37;34.33;;;14.23;;
71610;SDS011;59459;51.172;6.682;2022-12-10T12:29:35;36.83;;;14.57;;
71610;SDS011;59459;51.172;6.682;2022-12-10T12:34:42;36.85;;;15.20;;
71610;SDS011;59459;51.172;6.682;2022-12-10T12:37:09;40.57;;;17.40;;
71610;SDS011;59459;51.172;6.682;2022-12-10T12:39:41;34.20;;;13.77;;
71610;SDS011;59459;51.172;6.682;2022-12-10T12:42:27;37.78;;;15.30;;
71610;SDS011;59459;51.172;6.682;2022-12-10T12:49:51;47.67;;;19.40;;
71610;SDS011;59459;51.172;6.682;2022-12-10T12:55:06;37.70;;;13.77;;
71610;SDS011;59459;51.172;6.682;2022-12-10T13:00:55;35.10;;;13.85;;
71610;SDS011;59459;51.172;6.682;2022-12-10T13:11:29;39.47;;;16.30;;
71610;SDS011;59459;51.172;6.682;2022-12-10T13:29:28;36.15;;;14.02;;
71610;SDS011;59459;51.172;6.682;2022-12-10T13:32:04;37.30;;;13.93;;
71610;SDS011;59459;51.172;6.682;2022-12-10T13:42:37;42.77;;;15.63;;
71610;SDS011;59459;51.172;6.682;2022-12-10T13:49:59;39.85;;;14.48;;
71610;SDS011;59459;51.172;6.682;2022-12-10T13:52:45;40.45;;;16.88;;
71610;SDS011;59459;51.172;6.682;2022-12-10T14:00:10;42.55;;;16.05;;
71610;SDS011;59459;51.172;6.682;2022-12-10T14:07:54;43.38;;;15.65;;
71610;SDS011;59459;51.172;6.682;2022-12-10T14:10:26;43.40;;;16.33;;
71610;SDS011;59459;51.172;6.682;2022-12-10T14:12:52;46.33;;;16.48;;
71610;SDS011;59459;51.172;6.682;2022-12-10T14:15:19;50.55;;;17.63;;
71610;SDS011;59459;51.172;6.682;2022-12-10T14:17:46;45.58;;;17.08;;
71610;SDS011;59459;51.172;6.682;2022-12-10T14:20:15;49.47;;;17.10;;
71610;SDS011;59459;51.172;6.682;2022-12-10T14:22:51;42.27;;;16.03;;
71610;SDS011;59459;51.172;6.682;2022-12-10T14:25:18;46.50;;;16.25;;
71610;SDS011;59459;51.172;6.682;2022-12-10T14:27:48;44.63;;;16.00;;
71610;SDS011;59459;51.172;6.682;2022-12-10T14:30:18;48.30;;;16.65;;
71610;SDS011;59459;51.172;6.682;2022-12-10T14:32:44;48.38;;;16.20;;
71610;SDS011;59459;51.172;6.682;2022-12-10T14:35:17;50.10;;;17.33;;
71610;SDS011;59459;51.172;6.682;2022-12-10T14:37:44;46.95;;;17.35;;
71610;SDS011;59459;51.172;6.682;2022-12-10T14:40:17;46.40;;;16.30;;
71610;SDS011;59459;51.172;6.682;2022-12-10T14:42:44;46.97;;;15.88;;
71610;SDS011;59459;51.172;6.682;2022-12-10T14:45:11;48.27;;;16.73;;
71610;SDS011;59459;51.172;6.682;2022-12-10T14:47:37;53.15;;;18.20;;
71610;SDS011;59459;51.172;6.682;2022-12-10T14:50:03;45.67;;;17.73;;
71610;SDS011;59459;51.172;6.682;2022-12-10T14:52:32;46.33;;;17.37;;
71610;SDS011;59459;51.172;6.682;2022-12-10T14:55:00;40.58;;;15.85;;
71610;SDS011;59459;51.172;6.682;2022-12-10T14:57:31;49.80;;;16.77;;
71610;SDS011;59459;51.172;6.682;2022-12-10T15:02:33;45.00;;;17.23;;
71610;SDS011;59459;51.172;6.682;2022-12-10T15:04:59;44.58;;;15.93;;
71610;SDS011;59459;51.172;6.682;2022-12-10T15:07:31;49.20;;;15.80;;
71610;SDS011;59459;51.172;6.682;2022-12-10T15:10:00;50.53;;;16.83;;
71610;SDS011;59459;51.172;6.682;2022-12-10T15:12:30;53.65;;;17.60;;
71610;SDS011;59459;51.172;6.682;2022-12-10T15:14:57;51.83;;;15.15;;
71610;SDS011;59459;51.172;6.682;2022-12-10T15:17:33;49.60;;;15.15;;
71610;SDS011;59459;51.172;6.682;2022-12-10T15:19:58;43.23;;;15.07;;
71610;SDS011;59459;51.172;6.682;2022-12-10T15:22:24;48.77;;;15.77;;
71610;SDS011;59459;51.172;6.682;2022-12-10T15:25:30;54.03;;;18.33;;
71610;SDS011;59459;51.172;6.682;2022-12-10T15:27:59;54.78;;;17.75;;
71610;SDS011;59459;51.172;6.682;2022-12-10T15:30:31;50.47;;;17.95;;
71610;SDS011;59459;51.172;6.682;2022-12-10T15:32:57;55.70;;;16.77;;
71610;SDS011;59459;51.172;6.682;2022-12-10T15:35:25;53.03;;;17.30;;
71610;SDS011;59459;51.172;6.682;2022-12-10T15:37:50;47.35;;;17.83;;
71610;SDS011;59459;51.172;6.682;2022-12-10T15:40:22;52.00;;;17.93;;
71610;SDS011;59459;51.172;6.682;2022-12-10T15:42:47;51.33;;;17.00;;
71610;SDS011;59459;51.172;6.682;2022-12-10T15:45:23;52.73;;;17.17;;
71610;SDS011;59459;51.172;6.682;2022-12-10T15:47:53;43.92;;;15.60;;
71610;SDS011;59459;51.172;6.682;2022-12-10T15:50:18;50.95;;;16.60;;
71610;SDS011;59459;51.172;6.682;2022-12-10T15:52:46;46.57;;;15.83;;
71610;SDS011;59459;51.172;6.682;2022-12-10T15:55:22;47.22;;;15.20;;
71610;SDS011;59459;51.172;6.682;2022-12-10T16:10:31;46.85;;;14.35;;
